createdAt,value
2023-05-19T00:00:11.081Z,60.54
2023-05-19T00:01:12.084Z,60.47
2023-05-19T00:02:12.112Z,60.47
2023-05-19T00:03:11.154Z,60.34
2023-05-19T00:04:11.083Z,60.25
2023-05-19T00:05:11.090Z,60.29
2023-05-19T00:06:11.141Z,60.20
2023-05-19T00:07:12.078Z,60.19
2023-05-19T00:08:12.086Z,60.13
2023-05-19T00:09:11.079Z,60.08
2023-05-19T00:10:11.083Z,60.05
2023-05-19T00:11:11.087Z,59.95
2023-05-19T00:12:11.086Z,59.93
2023-05-19T00:13:11.080Z,59.89
2023-05-19T00:14:11.084Z,59.94
2023-05-19T00:15:11.080Z,59.92
2023-05-19T00:16:11.127Z,60.07
2023-05-19T00:17:11.088Z,59.95
2023-05-19T00:18:12.105Z,60.00
2023-05-19T00:19:11.173Z,59.88
2023-05-19T00:20:11.077Z,59.83
2023-05-19T00:21:11.088Z,59.86
2023-05-19T00:22:11.085Z,60.00
2023-05-19T00:23:11.079Z,59.96
2023-05-19T00:24:11.086Z,59.88
2023-05-19T00:25:11.082Z,60.02
2023-05-19T00:26:11.083Z,59.97
2023-05-19T00:27:11.083Z,59.98
2023-05-19T00:28:11.083Z,59.97
2023-05-19T00:29:11.078Z,59.85
2023-05-19T00:30:11.097Z,59.83
2023-05-19T00:31:11.081Z,59.77
2023-05-19T00:32:11.199Z,59.79
2023-05-19T00:33:11.136Z,59.86
2023-05-19T00:34:11.085Z,59.76
2023-05-19T00:35:11.084Z,59.84
2023-05-19T00:36:11.128Z,59.84
2023-05-19T00:37:11.089Z,59.79
2023-05-19T00:38:11.102Z,59.70
2023-05-19T00:39:11.087Z,59.75
2023-05-19T00:40:11.088Z,59.72
2023-05-19T00:41:11.082Z,59.64
2023-05-19T00:42:11.086Z,59.56
2023-05-19T00:43:12.102Z,59.54
2023-05-19T00:44:11.081Z,59.52
2023-05-19T00:45:11.087Z,59.64
2023-05-19T00:46:11.242Z,59.60
2023-05-19T00:47:11.085Z,59.62
2023-05-19T00:48:11.088Z,59.62
2023-05-19T00:49:11.087Z,59.66
2023-05-19T00:50:11.085Z,59.70
2023-05-19T00:51:11.085Z,59.87
2023-05-19T00:52:11.089Z,59.74
2023-05-19T00:53:11.093Z,59.75
2023-05-19T00:54:11.089Z,59.73
2023-05-19T00:55:11.090Z,59.74
2023-05-19T00:56:11.084Z,59.81
2023-05-19T00:57:11.084Z,59.97
2023-05-19T00:58:11.092Z,59.86
2023-05-19T00:59:11.089Z,59.93
2023-05-19T01:00:11.090Z,59.94
2023-05-19T01:01:11.114Z,59.83
2023-05-19T01:02:11.060Z,59.78
2023-05-19T01:03:14.210Z,59.73
2023-05-19T01:04:13.069Z,59.68
2023-05-19T01:05:11.072Z,59.62
2023-05-19T01:06:11.059Z,59.65
2023-05-19T01:07:11.072Z,59.68
2023-05-19T01:08:11.078Z,59.63
2023-05-19T01:09:11.060Z,59.61
2023-05-19T01:10:11.077Z,59.47
2023-05-19T01:11:11.065Z,59.46
2023-05-19T01:12:11.060Z,59.59
2023-05-19T01:13:11.071Z,59.52
2023-05-19T01:14:11.064Z,59.55
2023-05-19T01:15:11.064Z,59.47
2023-05-19T01:16:22.096Z,59.44
2023-05-19T01:17:19.063Z,59.43
2023-05-19T01:18:13.082Z,59.31
2023-05-19T01:19:19.123Z,59.34
2023-05-19T01:20:16.078Z,59.34
2023-05-19T01:21:19.068Z,59.40
2023-05-19T01:22:23.183Z,59.39
2023-05-19T01:23:19.073Z,59.52
2023-05-19T01:24:19.079Z,59.47
2023-05-19T01:25:19.077Z,59.48
2023-05-19T01:26:19.069Z,59.40
2023-05-19T01:27:19.070Z,59.37
2023-05-19T01:28:19.063Z,59.41
2023-05-19T01:29:19.080Z,59.31
2023-05-19T01:30:21.065Z,59.26
2023-05-19T01:31:11.075Z,59.38
2023-05-19T01:32:11.111Z,59.39
2023-05-19T01:33:11.070Z,59.47
2023-05-19T01:34:11.069Z,59.42
2023-05-19T01:35:12.061Z,59.47
2023-05-19T01:36:12.070Z,59.46
2023-05-19T01:37:12.069Z,59.53
2023-05-19T01:38:11.078Z,59.57
2023-05-19T01:39:11.072Z,59.52
2023-05-19T01:40:11.077Z,59.54
2023-05-19T01:41:11.064Z,59.48
2023-05-19T01:42:11.085Z,59.42
2023-05-19T01:43:12.093Z,59.45
2023-05-19T01:44:11.082Z,59.52
2023-05-19T01:45:11.080Z,59.64
2023-05-19T01:46:11.152Z,59.89
2023-05-19T01:47:11.070Z,59.83
2023-05-19T01:48:11.432Z,59.84
2023-05-19T01:49:11.073Z,59.79
2023-05-19T01:50:11.086Z,59.78
2023-05-19T01:51:11.082Z,59.74
2023-05-19T01:52:11.080Z,59.74
2023-05-19T01:53:11.071Z,59.69
2023-05-19T01:54:11.075Z,59.62
2023-05-19T01:55:11.077Z,59.65
2023-05-19T01:56:11.072Z,59.61
2023-05-19T01:57:19.089Z,59.56
2023-05-19T01:58:20.081Z,59.54
2023-05-19T01:59:21.072Z,59.51
2023-05-19T02:00:19.371Z,59.51
2023-05-19T02:01:21.107Z,59.51
2023-05-19T02:02:19.087Z,59.60
2023-05-19T02:03:19.084Z,59.62
2023-05-19T02:04:19.166Z,59.54
2023-05-19T02:05:19.075Z,59.62
2023-05-19T02:06:19.083Z,59.60
2023-05-19T02:07:19.090Z,59.65
2023-05-19T02:08:19.079Z,59.64
2023-05-19T02:09:19.078Z,59.56
2023-05-19T02:10:18.081Z,59.55
2023-05-19T02:11:19.093Z,59.58
2023-05-19T02:12:20.078Z,59.55
2023-05-19T02:13:13.073Z,59.51
2023-05-19T02:14:19.076Z,59.58
2023-05-19T02:15:15.086Z,59.70
2023-05-19T02:16:11.093Z,59.64
2023-05-19T02:17:12.071Z,59.66
2023-05-19T02:18:12.085Z,59.54
2023-05-19T02:19:21.137Z,59.45
2023-05-19T02:20:11.074Z,59.44
2023-05-19T02:21:11.075Z,59.45
2023-05-19T02:22:11.084Z,59.51
2023-05-19T02:23:11.101Z,59.60
2023-05-19T02:24:11.095Z,59.59
2023-05-19T02:25:11.094Z,59.60
2023-05-19T02:26:11.087Z,59.65
2023-05-19T02:27:11.081Z,59.70
2023-05-19T02:28:11.090Z,59.66
2023-05-19T02:29:11.093Z,59.68
2023-05-19T02:30:11.091Z,59.71
2023-05-19T02:31:12.085Z,59.77
2023-05-19T02:32:11.213Z,59.85
2023-05-19T02:33:11.134Z,59.94
2023-05-19T02:34:11.090Z,59.96
2023-05-19T02:35:11.075Z,60.02
2023-05-19T02:36:11.076Z,60.12
2023-05-19T02:37:11.087Z,60.17
2023-05-19T02:38:11.086Z,60.26
2023-05-19T02:39:11.095Z,60.39
2023-05-19T02:40:11.121Z,60.42
2023-05-19T02:41:11.075Z,60.55
2023-05-19T02:42:11.088Z,60.58
2023-05-19T02:43:11.096Z,60.69
2023-05-19T02:44:11.078Z,60.92
2023-05-19T02:45:11.076Z,60.97
2023-05-19T02:46:11.099Z,61.05
2023-05-19T02:47:11.076Z,61.21
2023-05-19T02:48:11.150Z,61.24
2023-05-19T02:49:11.088Z,61.32
2023-05-19T02:50:11.077Z,61.46
2023-05-19T02:51:11.076Z,61.38
2023-05-19T02:52:11.082Z,61.42
2023-05-19T02:53:11.080Z,61.52
2023-05-19T02:54:11.074Z,61.57
2023-05-19T02:55:11.080Z,61.64
2023-05-19T02:56:11.082Z,61.81
2023-05-19T02:57:11.074Z,61.77
2023-05-19T02:58:11.083Z,61.71
2023-05-19T02:59:11.081Z,61.67
2023-05-19T03:00:11.077Z,61.87
2023-05-19T03:01:11.097Z,61.90
2023-05-19T03:02:11.144Z,62.08
2023-05-19T03:03:11.144Z,62.14
2023-05-19T03:04:11.105Z,62.09
2023-05-19T03:05:11.081Z,62.02
2023-05-19T03:06:12.083Z,62.14
2023-05-19T03:07:11.095Z,62.16
2023-05-19T03:08:11.082Z,62.27
2023-05-19T03:09:11.077Z,62.35
2023-05-19T03:10:11.083Z,62.41
2023-05-19T03:11:11.081Z,62.39
2023-05-19T03:12:11.078Z,62.49
2023-05-19T03:13:11.085Z,62.45
2023-05-19T03:14:11.082Z,62.39
2023-05-19T03:15:11.081Z,62.44
2023-05-19T03:16:11.148Z,62.36
2023-05-19T03:17:13.186Z,62.31
2023-05-19T03:18:11.166Z,62.31
2023-05-19T03:19:23.142Z,62.48
2023-05-19T03:20:11.106Z,62.42
2023-05-19T03:21:11.093Z,62.43
2023-05-19T03:22:11.097Z,62.53
2023-05-19T03:23:11.103Z,62.50
2023-05-19T03:24:11.091Z,62.49
2023-05-19T03:25:11.082Z,62.57
2023-05-19T03:26:11.093Z,62.70
2023-05-19T03:27:11.084Z,62.76
2023-05-19T03:28:11.083Z,62.80
2023-05-19T03:29:11.095Z,62.71
2023-05-19T03:30:11.093Z,62.69
2023-05-19T03:31:11.088Z,62.59
2023-05-19T03:32:11.115Z,63.00
2023-05-19T03:33:11.349Z,63.05
2023-05-19T03:34:11.093Z,63.05
2023-05-19T03:35:11.092Z,62.95
2023-05-19T03:36:11.108Z,62.95
2023-05-19T03:37:11.102Z,62.96
2023-05-19T03:38:11.089Z,62.98
2023-05-19T03:39:11.090Z,63.03
2023-05-19T03:40:11.090Z,63.00
2023-05-19T03:41:11.086Z,62.91
2023-05-19T03:42:11.101Z,62.89
2023-05-19T03:43:11.097Z,62.88
2023-05-19T03:44:11.097Z,62.85
2023-05-19T03:45:11.093Z,62.76
2023-05-19T03:46:11.153Z,62.75
2023-05-19T03:47:11.094Z,62.77
2023-05-19T03:48:11.172Z,62.88
2023-05-19T03:49:11.097Z,62.84
2023-05-19T03:50:11.109Z,62.84
2023-05-19T03:51:11.093Z,62.77
2023-05-19T03:52:11.098Z,62.77
2023-05-19T03:53:11.093Z,62.79
2023-05-19T03:54:11.090Z,62.88
2023-05-19T03:55:11.103Z,62.84
2023-05-19T03:56:11.098Z,62.88
2023-05-19T03:57:11.099Z,62.88
2023-05-19T03:58:11.100Z,62.91
2023-05-19T03:59:11.099Z,62.90
2023-05-19T04:00:11.120Z,62.84
2023-05-19T04:01:11.062Z,62.86
2023-05-19T04:02:11.107Z,62.85
2023-05-19T04:03:11.219Z,62.89
2023-05-19T04:04:11.145Z,62.92
2023-05-19T04:05:11.070Z,62.83
2023-05-19T04:06:11.065Z,62.91
2023-05-19T04:07:11.059Z,62.86
2023-05-19T04:08:11.071Z,62.83
2023-05-19T04:09:13.098Z,62.78
2023-05-19T04:10:11.064Z,62.71
2023-05-19T04:11:11.067Z,62.71
2023-05-19T04:12:11.068Z,62.75
2023-05-19T04:13:11.065Z,62.75
2023-05-19T04:14:11.087Z,62.72
2023-05-19T04:15:11.066Z,62.61
2023-05-19T04:16:11.131Z,62.55
2023-05-19T04:17:11.071Z,62.56
2023-05-19T04:18:11.114Z,62.55
2023-05-19T04:19:11.077Z,62.57
2023-05-19T04:20:11.068Z,62.59
2023-05-19T04:21:12.071Z,62.52
2023-05-19T04:22:11.068Z,62.45
2023-05-19T04:23:11.073Z,62.36
2023-05-19T04:24:11.069Z,62.36
2023-05-19T04:25:11.069Z,62.37
2023-05-19T04:26:11.067Z,62.48
2023-05-19T04:27:15.069Z,62.39
2023-05-19T04:28:11.070Z,62.35
2023-05-19T04:29:11.068Z,62.28
2023-05-19T04:30:11.069Z,62.27
2023-05-19T04:31:14.098Z,62.26
2023-05-19T04:32:11.072Z,62.23
2023-05-19T04:33:11.128Z,62.12
2023-05-19T04:34:11.071Z,62.12
2023-05-19T04:35:11.070Z,62.05
2023-05-19T04:36:12.078Z,62.02
2023-05-19T04:37:11.070Z,62.08
2023-05-19T04:38:11.066Z,62.01
2023-05-19T04:39:13.080Z,62.08
2023-05-19T04:40:11.155Z,62.10
2023-05-19T04:41:11.111Z,62.11
2023-05-19T04:42:11.074Z,62.05
2023-05-19T04:43:11.070Z,62.24
2023-05-19T04:44:11.068Z,62.31
2023-05-19T04:45:12.072Z,62.13
2023-05-19T04:46:13.838Z,62.03
2023-05-19T04:47:11.093Z,62.03
2023-05-19T04:48:11.076Z,62.08
2023-05-19T04:49:11.073Z,61.99
2023-05-19T04:50:11.163Z,61.93
2023-05-19T04:51:11.076Z,61.88
2023-05-19T04:52:11.109Z,61.89
2023-05-19T04:53:11.069Z,61.97
2023-05-19T04:54:11.080Z,62.02
2023-05-19T04:55:11.074Z,61.99
2023-05-19T04:56:11.069Z,61.95
2023-05-19T04:57:11.073Z,61.98
2023-05-19T04:58:11.073Z,61.89
2023-05-19T04:59:11.075Z,61.94
2023-05-19T05:00:12.088Z,62.01
2023-05-19T05:01:11.074Z,61.93
2023-05-19T05:02:11.194Z,61.95
2023-05-19T05:03:11.147Z,61.90
2023-05-19T05:04:11.160Z,61.89
2023-05-19T05:05:11.079Z,61.89
2023-05-19T05:06:11.073Z,61.90
2023-05-19T05:07:11.069Z,61.83
2023-05-19T05:08:11.080Z,61.80
2023-05-19T05:09:11.073Z,61.77
2023-05-19T05:10:11.079Z,61.77
2023-05-19T05:11:11.069Z,61.72
2023-05-19T05:12:11.091Z,61.83
2023-05-19T05:13:11.959Z,61.73
2023-05-19T05:14:11.069Z,61.73
2023-05-19T05:15:11.072Z,61.71
2023-05-19T05:16:11.122Z,61.73
2023-05-19T05:17:11.074Z,61.71
2023-05-19T05:18:11.109Z,61.73
2023-05-19T05:19:11.170Z,61.73
2023-05-19T05:20:11.070Z,61.65
2023-05-19T05:21:11.077Z,61.69
2023-05-19T05:22:11.069Z,61.71
2023-05-19T05:23:11.073Z,61.63
2023-05-19T05:24:11.077Z,61.60
2023-05-19T05:25:11.073Z,61.68
2023-05-19T05:26:17.072Z,61.68
2023-05-19T05:27:11.079Z,61.58
2023-05-19T05:28:11.072Z,61.58
2023-05-19T05:29:11.081Z,61.55
2023-05-19T05:30:11.068Z,61.47
2023-05-19T05:31:11.083Z,61.39
2023-05-19T05:32:11.133Z,61.31
2023-05-19T05:33:11.202Z,61.20
2023-05-19T05:34:11.073Z,61.13
2023-05-19T05:35:11.067Z,61.16
2023-05-19T05:36:11.073Z,61.03
2023-05-19T05:37:13.114Z,61.04
2023-05-19T05:38:11.067Z,60.94
2023-05-19T05:39:11.084Z,60.98
2023-05-19T05:40:11.074Z,60.83
2023-05-19T05:41:11.068Z,60.76
2023-05-19T05:42:11.102Z,60.79
2023-05-19T05:43:11.071Z,60.64
2023-05-19T05:44:11.073Z,60.65
2023-05-19T05:45:11.077Z,60.58
2023-05-19T05:46:11.151Z,60.59
2023-05-19T05:47:11.068Z,60.52
2023-05-19T05:48:11.107Z,60.52
2023-05-19T05:49:11.073Z,60.59
2023-05-19T05:50:11.087Z,60.58
2023-05-19T05:51:11.088Z,60.62
2023-05-19T05:52:12.077Z,60.68
2023-05-19T05:53:15.077Z,60.61
2023-05-19T05:54:11.079Z,60.57
2023-05-19T05:55:11.078Z,60.67
2023-05-19T05:56:11.076Z,60.57
2023-05-19T05:57:11.089Z,60.51
2023-05-19T05:58:11.079Z,60.64
2023-05-19T05:59:11.073Z,60.73
2023-05-19T06:00:11.081Z,60.85
2023-05-19T06:01:14.094Z,60.92
2023-05-19T06:02:11.081Z,61.03
2023-05-19T06:03:11.276Z,61.02
2023-05-19T06:04:11.080Z,61.09
2023-05-19T06:05:11.124Z,61.12
2023-05-19T06:06:11.084Z,61.39
2023-05-19T06:07:11.099Z,61.41
2023-05-19T06:08:11.086Z,61.53
2023-05-19T06:09:11.089Z,61.69
2023-05-19T06:10:11.081Z,61.63
2023-05-19T06:11:13.092Z,61.83
2023-05-19T06:12:11.098Z,61.79
2023-05-19T06:13:11.084Z,61.75
2023-05-19T06:14:11.098Z,62.01
2023-05-19T06:15:11.093Z,61.96
2023-05-19T06:16:11.150Z,62.02
2023-05-19T06:17:11.078Z,62.06
2023-05-19T06:18:11.145Z,62.05
2023-05-19T06:19:11.182Z,62.12
2023-05-19T06:20:11.107Z,62.10
2023-05-19T06:21:11.091Z,62.03
2023-05-19T06:22:11.080Z,62.14
2023-05-19T06:23:11.092Z,62.18
2023-05-19T06:24:11.089Z,62.16
2023-05-19T06:25:11.084Z,62.12
2023-05-19T06:26:11.087Z,62.15
2023-05-19T06:27:11.101Z,62.13
2023-05-19T06:28:11.089Z,62.22
2023-05-19T06:29:11.087Z,62.13
2023-05-19T06:30:12.092Z,62.14
2023-05-19T06:31:11.227Z,62.14
2023-05-19T06:32:11.092Z,62.15
2023-05-19T06:33:11.158Z,62.04
2023-05-19T06:34:11.086Z,62.10
2023-05-19T06:35:11.080Z,62.03
2023-05-19T06:36:11.092Z,62.13
2023-05-19T06:37:11.089Z,61.96
2023-05-19T06:38:11.089Z,61.84
2023-05-19T06:39:11.090Z,61.60
2023-05-19T06:40:11.087Z,61.51
2023-05-19T06:41:11.091Z,61.39
2023-05-19T06:42:11.100Z,61.24
2023-05-19T06:43:11.088Z,61.11
2023-05-19T06:44:11.086Z,61.12
2023-05-19T06:45:11.095Z,61.04
2023-05-19T06:46:11.086Z,60.83
2023-05-19T06:47:11.183Z,60.77
2023-05-19T06:48:11.141Z,60.62
2023-05-19T06:49:11.092Z,60.59
2023-05-19T06:50:11.104Z,60.57
2023-05-19T06:51:11.097Z,60.46
2023-05-19T06:52:11.092Z,60.44
2023-05-19T06:53:11.093Z,60.43
2023-05-19T06:54:11.137Z,60.38
2023-05-19T06:55:11.104Z,60.34
2023-05-19T06:56:11.087Z,60.18
2023-05-19T06:57:11.097Z,60.08
2023-05-19T06:58:11.101Z,59.99
2023-05-19T06:59:11.091Z,59.86
2023-05-19T07:00:15.958Z,59.86
2023-05-19T07:01:11.065Z,59.82
2023-05-19T07:02:11.125Z,59.63
2023-05-19T07:03:11.202Z,59.55
2023-05-19T07:04:11.151Z,59.41
2023-05-19T07:05:11.066Z,59.23
2023-05-19T07:06:11.070Z,59.00
2023-05-19T07:07:11.068Z,59.00
2023-05-19T07:08:12.066Z,58.92
2023-05-19T07:09:11.063Z,58.80
2023-05-19T07:10:11.075Z,58.70
2023-05-19T07:11:11.063Z,58.49
2023-05-19T07:12:11.072Z,58.25
2023-05-19T07:13:11.067Z,58.11
2023-05-19T07:14:11.069Z,58.10
2023-05-19T07:15:11.068Z,57.90
2023-05-19T07:16:11.096Z,57.73
2023-05-19T07:17:11.069Z,57.52
2023-05-19T07:18:11.150Z,57.32
2023-05-19T07:19:11.144Z,57.25
2023-05-19T07:20:15.072Z,57.21
2023-05-19T07:21:11.075Z,57.23
2023-05-19T07:22:11.070Z,57.22
2023-05-19T07:23:11.087Z,57.00
2023-05-19T07:24:11.077Z,57.00
2023-05-19T07:25:11.067Z,57.00
2023-05-19T07:26:11.070Z,56.85
2023-05-19T07:27:11.074Z,56.93
2023-05-19T07:28:11.069Z,56.78
2023-05-19T07:29:11.065Z,56.69
2023-05-19T07:30:11.074Z,56.55
2023-05-19T07:31:11.068Z,56.48
2023-05-19T07:32:11.127Z,56.37
2023-05-19T07:33:11.144Z,56.31
2023-05-19T07:34:11.068Z,56.35
2023-05-19T07:35:11.064Z,56.25
2023-05-19T07:36:11.076Z,56.25
2023-05-19T07:37:11.079Z,56.24
2023-05-19T07:38:11.085Z,56.26
2023-05-19T07:39:11.179Z,56.15
2023-05-19T07:40:13.123Z,56.00
2023-05-19T07:41:11.074Z,56.09
2023-05-19T07:42:11.071Z,56.01
2023-05-19T07:43:11.069Z,56.06
2023-05-19T07:44:11.074Z,56.05
2023-05-19T07:45:11.065Z,55.98
2023-05-19T07:46:11.145Z,55.82
2023-05-19T07:47:11.069Z,55.60
2023-05-19T07:48:11.097Z,55.46
2023-05-19T07:49:11.068Z,55.34
2023-05-19T07:50:11.074Z,55.46
2023-05-19T07:51:13.077Z,55.54
2023-05-19T07:52:11.071Z,55.42
2023-05-19T07:53:11.067Z,55.31
2023-05-19T07:54:12.071Z,55.20
2023-05-19T07:55:11.076Z,55.22
2023-05-19T07:56:11.071Z,55.11
2023-05-19T07:57:11.072Z,55.01
2023-05-19T07:58:11.066Z,55.17
2023-05-19T07:59:11.069Z,55.29
2023-05-19T08:00:15.074Z,55.42
2023-05-19T08:01:11.072Z,55.44
2023-05-19T08:02:11.116Z,55.66
2023-05-19T08:03:11.242Z,55.67
2023-05-19T08:04:12.891Z,55.46
2023-05-19T08:05:11.070Z,55.63
2023-05-19T08:06:12.074Z,55.71
2023-05-19T08:07:11.072Z,55.72
2023-05-19T08:08:11.069Z,55.64
2023-05-19T08:09:11.085Z,55.81
2023-05-19T08:10:11.093Z,55.64
2023-05-19T08:11:11.067Z,55.34
2023-05-19T08:12:11.070Z,55.38
2023-05-19T08:13:11.094Z,55.35
2023-05-19T08:14:11.075Z,55.21
2023-05-19T08:15:11.074Z,55.05
2023-05-19T08:16:11.111Z,54.89
2023-05-19T08:17:11.081Z,54.76
2023-05-19T08:18:11.110Z,54.76
2023-05-19T08:19:11.146Z,54.64
2023-05-19T08:20:12.091Z,54.62
2023-05-19T08:21:11.076Z,54.28
2023-05-19T08:22:11.083Z,54.05
2023-05-19T08:23:11.078Z,54.04
2023-05-19T08:24:11.075Z,53.79
2023-05-19T08:25:11.088Z,53.53
2023-05-19T08:26:11.075Z,53.22
2023-05-19T08:27:11.078Z,53.00
2023-05-19T08:28:11.083Z,52.72
2023-05-19T08:29:11.082Z,52.35
2023-05-19T08:30:11.104Z,52.00
2023-05-19T08:31:11.108Z,51.90
2023-05-19T08:32:13.062Z,51.95
2023-05-19T08:33:11.165Z,51.78
2023-05-19T08:34:11.093Z,51.38
2023-05-19T08:35:11.078Z,51.02
2023-05-19T08:36:11.081Z,50.87
2023-05-19T08:37:11.094Z,50.62
2023-05-19T08:38:11.082Z,50.47
2023-05-19T08:39:11.080Z,50.33
2023-05-19T08:40:15.083Z,50.08
2023-05-19T08:41:11.085Z,49.91
2023-05-19T08:42:11.085Z,49.87
2023-05-19T08:43:11.084Z,49.55
2023-05-19T08:44:11.080Z,49.63
2023-05-19T08:45:11.095Z,49.52
2023-05-19T08:46:13.114Z,49.44
2023-05-19T08:47:15.081Z,49.53
2023-05-19T08:48:11.120Z,49.31
2023-05-19T08:49:13.087Z,49.07
2023-05-19T08:50:11.095Z,48.66
2023-05-19T08:51:19.096Z,48.61
2023-05-19T08:52:21.084Z,48.58
2023-05-19T08:54:17.089Z,48.78
2023-05-19T08:55:19.080Z,49.00
2023-05-19T08:56:19.091Z,49.07
2023-05-19T08:57:11.084Z,49.09
2023-05-19T08:58:11.080Z,49.21
2023-05-19T08:59:11.081Z,49.12
2023-05-19T09:00:14.081Z,49.09
2023-05-19T09:01:13.184Z,49.04
2023-05-19T09:02:11.085Z,49.14
2023-05-19T09:03:23.052Z,49.24
2023-05-19T09:04:13.185Z,49.28
2023-05-19T09:05:11.158Z,49.23
2023-05-19T09:06:11.090Z,49.10
2023-05-19T09:07:11.085Z,49.31
2023-05-19T09:08:11.078Z,49.22
2023-05-19T09:09:11.088Z,49.47
2023-05-19T09:10:11.083Z,49.52
2023-05-19T09:11:13.088Z,49.63
2023-05-19T09:12:13.096Z,49.56
2023-05-19T09:13:11.097Z,49.59
2023-05-19T09:14:11.085Z,49.89
2023-05-19T09:15:11.090Z,49.81
2023-05-19T09:16:11.131Z,49.98
2023-05-19T09:17:11.124Z,50.09
2023-05-19T09:18:11.156Z,50.44
2023-05-19T09:19:15.099Z,50.59
2023-05-19T09:20:14.084Z,50.59
2023-05-19T09:21:11.082Z,50.51
2023-05-19T09:22:11.092Z,50.78
2023-05-19T09:23:14.124Z,50.62
2023-05-19T09:24:11.088Z,50.66
2023-05-19T09:25:19.125Z,50.53
2023-05-19T09:26:11.090Z,50.50
2023-05-19T09:27:13.088Z,50.37
2023-05-19T09:28:11.086Z,50.40
2023-05-19T09:29:15.126Z,50.52
2023-05-19T09:30:11.084Z,50.33
2023-05-19T09:31:11.115Z,49.96
2023-05-19T09:32:11.112Z,49.80
2023-05-19T09:33:16.114Z,50.03
2023-05-19T09:34:15.080Z,50.15
2023-05-19T09:35:11.088Z,49.87
2023-05-19T09:36:11.125Z,49.74
2023-05-19T09:37:12.088Z,49.74
2023-05-19T09:38:15.088Z,49.82
2023-05-19T09:39:15.097Z,50.01
2023-05-19T09:40:15.091Z,49.97
2023-05-19T09:41:11.090Z,49.88
2023-05-19T09:42:11.096Z,50.10
2023-05-19T09:43:11.091Z,50.20
2023-05-19T09:44:14.094Z,50.22
2023-05-19T09:45:11.087Z,50.32
2023-05-19T09:46:12.189Z,50.11
2023-05-19T09:47:11.086Z,50.10
2023-05-19T09:48:11.093Z,50.11
2023-05-19T09:49:11.098Z,49.89
2023-05-19T09:50:11.096Z,49.81
2023-05-19T09:51:11.166Z,50.00
2023-05-19T09:52:12.635Z,49.95
2023-05-19T09:53:11.087Z,50.11
2023-05-19T09:54:14.091Z,50.15
2023-05-19T09:55:14.104Z,50.09
2023-05-19T09:56:11.088Z,50.10
2023-05-19T09:57:11.089Z,49.97
2023-05-19T09:58:12.724Z,49.78
2023-05-19T09:59:11.092Z,49.59
2023-05-19T10:00:17.144Z,49.46
2023-05-19T10:01:11.092Z,49.46
2023-05-19T10:02:16.069Z,49.31
2023-05-19T10:03:11.073Z,49.22
2023-05-19T10:04:11.075Z,48.90
2023-05-19T10:05:14.098Z,49.05
2023-05-19T10:06:11.061Z,48.88
2023-05-19T10:07:12.067Z,48.85
2023-05-19T10:08:11.078Z,48.27
2023-05-19T10:09:11.065Z,48.13
2023-05-19T10:10:12.065Z,48.08
2023-05-19T10:11:11.071Z,48.31
2023-05-19T10:12:11.077Z,48.09
2023-05-19T10:13:11.068Z,48.06
2023-05-19T10:14:11.071Z,47.95
2023-05-19T10:15:13.062Z,47.96
2023-05-19T10:16:11.127Z,48.35
2023-05-19T10:17:11.076Z,48.79
2023-05-19T10:18:13.129Z,49.27
2023-05-19T10:19:11.081Z,49.63
2023-05-19T10:20:11.066Z,49.90
2023-05-19T10:21:11.067Z,50.33
2023-05-19T10:22:11.064Z,50.58
2023-05-19T10:23:11.070Z,50.83
2023-05-19T10:24:11.630Z,50.88
2023-05-19T10:25:11.068Z,51.00
2023-05-19T10:26:11.072Z,51.12
2023-05-19T10:27:13.072Z,51.35
2023-05-19T10:28:17.068Z,51.48
2023-05-19T10:29:11.060Z,51.43
2023-05-19T10:30:16.512Z,51.47
2023-05-19T10:31:13.069Z,51.50
2023-05-19T10:32:14.119Z,51.41
2023-05-19T10:33:13.130Z,51.04
2023-05-19T10:34:19.098Z,51.05
2023-05-19T10:35:21.087Z,51.21
2023-05-19T10:36:20.069Z,51.83
2023-05-19T10:37:19.072Z,52.23
2023-05-19T10:38:19.077Z,52.65
2023-05-19T10:39:19.126Z,52.86
2023-05-19T10:40:18.069Z,53.02
2023-05-19T10:41:19.073Z,53.30
2023-05-19T10:42:21.101Z,53.64
2023-05-19T10:43:19.084Z,53.57
2023-05-19T10:44:19.079Z,53.49
2023-05-19T10:45:18.071Z,52.90
2023-05-19T10:46:11.125Z,52.57
2023-05-19T10:47:11.161Z,52.14
2023-05-19T10:48:15.147Z,51.89
2023-05-19T10:49:11.073Z,51.93
2023-05-19T10:50:11.117Z,52.12
2023-05-19T10:51:11.078Z,52.36
2023-05-19T10:52:19.081Z,52.51
2023-05-19T10:53:15.081Z,52.63
2023-05-19T10:54:12.265Z,52.57
2023-05-19T10:55:14.072Z,52.88
2023-05-19T10:56:11.071Z,52.98
2023-05-19T10:57:14.098Z,53.36
2023-05-19T10:58:11.080Z,53.90
2023-05-19T10:59:19.086Z,54.51
2023-05-19T11:00:26.078Z,54.97
2023-05-19T11:01:15.110Z,55.46
2023-05-19T11:02:11.142Z,55.60
2023-05-19T11:03:17.078Z,56.45
2023-05-19T11:04:11.140Z,57.14
2023-05-19T11:05:14.087Z,57.49
2023-05-19T11:06:19.084Z,57.34
2023-05-19T11:07:11.082Z,57.63
2023-05-19T11:08:11.077Z,58.39
2023-05-19T11:10:11.085Z,60.02
2023-05-19T11:11:15.090Z,60.60
2023-05-19T11:12:11.089Z,60.83
2023-05-19T11:13:19.081Z,61.15
2023-05-19T11:14:12.077Z,61.38
2023-05-19T11:15:15.100Z,61.75
2023-05-19T11:16:11.086Z,61.37
2023-05-19T11:17:14.082Z,61.23
2023-05-19T11:18:13.129Z,61.68
2023-05-19T11:19:15.112Z,62.41
2023-05-19T11:20:15.088Z,62.76
2023-05-19T11:21:11.123Z,62.72
2023-05-19T11:22:11.081Z,62.96
2023-05-19T11:23:14.131Z,63.18
2023-05-19T11:24:11.103Z,63.15
2023-05-19T11:25:11.082Z,63.25
2023-05-19T11:26:11.080Z,63.61
2023-05-19T11:27:19.127Z,64.21
2023-05-19T11:28:11.087Z,64.05
2023-05-19T11:29:11.081Z,64.61
2023-05-19T11:30:11.085Z,65.10
2023-05-19T11:31:11.083Z,64.82
2023-05-19T11:32:11.143Z,64.69
2023-05-19T11:33:11.119Z,64.59
2023-05-19T11:34:11.082Z,64.43
2023-05-19T11:35:11.114Z,64.37
2023-05-19T11:36:11.113Z,64.20
2023-05-19T11:37:11.092Z,64.28
2023-05-19T11:38:11.083Z,64.60
2023-05-19T11:39:11.085Z,64.50
2023-05-19T11:40:11.097Z,64.23
2023-05-19T11:41:11.082Z,64.08
2023-05-19T11:42:13.088Z,64.29
2023-05-19T11:43:11.100Z,64.27
2023-05-19T11:44:13.096Z,64.25
2023-05-19T11:45:11.082Z,64.36
2023-05-19T11:46:11.131Z,63.90
2023-05-19T11:47:11.082Z,64.33
2023-05-19T11:48:13.166Z,63.85
2023-05-19T11:49:11.110Z,63.47
2023-05-19T11:50:12.114Z,63.36
2023-05-19T11:51:11.093Z,62.98
2023-05-19T11:52:11.094Z,62.99
2023-05-19T11:53:12.092Z,62.79
2023-05-19T11:54:11.087Z,62.37
2023-05-19T11:55:14.087Z,62.58
2023-05-19T11:56:11.084Z,62.40
2023-05-19T11:57:11.110Z,62.54
2023-05-19T11:58:11.094Z,62.62
2023-05-19T11:59:13.085Z,62.57
2023-05-19T12:00:12.166Z,62.51
2023-05-19T12:01:11.093Z,62.45
2023-05-19T12:02:18.106Z,62.37
2023-05-19T12:03:11.215Z,62.40
2023-05-19T12:04:11.089Z,62.35
2023-05-19T12:05:19.236Z,62.57
2023-05-19T12:06:12.124Z,63.10
2023-05-19T12:07:11.085Z,63.33
2023-05-19T12:08:11.136Z,63.08
2023-05-19T12:09:11.091Z,63.25
2023-05-19T12:10:11.162Z,62.85
2023-05-19T12:11:11.086Z,62.73
2023-05-19T12:12:11.084Z,63.00
2023-05-19T12:13:11.219Z,62.96
2023-05-19T12:14:11.091Z,63.24
2023-05-19T12:15:11.092Z,63.72
2023-05-19T12:16:11.148Z,63.51
2023-05-19T12:17:15.101Z,63.97
2023-05-19T12:18:11.158Z,64.17
2023-05-19T12:19:12.163Z,63.93
2023-05-19T12:20:11.128Z,63.81
2023-05-19T12:21:11.110Z,63.29
2023-05-19T12:22:11.091Z,63.21
2023-05-19T12:23:11.089Z,63.07
2023-05-19T12:24:11.086Z,63.12
2023-05-19T12:25:11.090Z,63.24
2023-05-19T12:26:11.090Z,62.99
2023-05-19T12:27:17.091Z,62.65
2023-05-19T12:28:11.089Z,62.23
2023-05-19T12:29:11.091Z,62.05
2023-05-19T12:30:11.088Z,61.99
2023-05-19T12:31:11.113Z,62.00
2023-05-19T12:32:11.164Z,61.79
2023-05-19T12:33:11.138Z,61.52
2023-05-19T12:34:12.091Z,61.56
2023-05-19T12:35:11.092Z,61.53
2023-05-19T12:36:11.090Z,61.80
2023-05-19T12:37:12.098Z,61.57
2023-05-19T12:38:11.111Z,61.64
2023-05-19T12:39:11.093Z,61.24
2023-05-19T12:40:14.102Z,61.12
2023-05-19T12:41:12.122Z,60.88
2023-05-19T12:42:11.109Z,60.31
2023-05-19T12:43:15.095Z,60.42
2023-05-19T12:44:15.113Z,59.92
2023-05-19T12:45:11.101Z,59.93
2023-05-19T12:46:13.133Z,59.71
2023-05-19T12:47:11.097Z,59.45
2023-05-19T12:48:13.157Z,59.16
2023-05-19T12:49:11.094Z,59.32
2023-05-19T12:50:11.105Z,58.64
2023-05-19T12:51:11.096Z,58.57
2023-05-19T12:52:13.276Z,58.00
2023-05-19T12:53:13.175Z,57.79
2023-05-19T12:54:11.126Z,57.88